createdAt,value
2023-02-17T00:02:08.374Z,100885.84
2023-02-17T00:04:36.530Z,100884.16
2023-02-17T00:07:04.639Z,100895.03
2023-02-17T00:09:32.596Z,100885.19
2023-02-17T00:12:00.833Z,100883.47
2023-02-17T00:14:28.800Z,100884.50
2023-02-17T00:16:56.719Z,100876.31
2023-02-17T00:19:25.355Z,100883.66
2023-02-17T00:21:53.473Z,100880.25
2023-02-17T00:24:21.661Z,100869.50
2023-02-17T00:26:49.677Z,100862.19
2023-02-17T00:29:17.699Z,100853.34
2023-02-17T00:31:45.943Z,100861.69
2023-02-17T00:34:14.107Z,100849.94
2023-02-17T00:36:42.529Z,100843.66
2023-02-17T00:39:10.555Z,100837.34
2023-02-17T00:41:38.718Z,100834.97
2023-02-17T00:44:06.849Z,100838.72
2023-02-17T00:46:34.928Z,100830.91
2023-02-17T00:49:05.175Z,100836.34
2023-02-17T00:51:33.241Z,100829.19
2023-02-17T00:54:01.174Z,100831.06
2023-02-17T00:56:29.337Z,100829.53
2023-02-17T00:58:57.440Z,100832.25
2023-02-17T01:01:25.402Z,100822.41
2023-02-17T01:03:53.364Z,100825.13
2023-02-17T01:06:21.338Z,100812.50
2023-02-17T01:08:49.440Z,100817.31
2023-02-17T01:11:17.549Z,100813.72
2023-02-17T01:13:45.614Z,100815.59
2023-02-17T01:16:13.771Z,100823.59
2023-02-17T01:18:41.986Z,100804.69
2023-02-17T01:21:10.036Z,100810.97
2023-02-17T01:23:38.038Z,100807.41
2023-02-17T01:26:06.452Z,100806.72
2023-02-17T01:28:36.292Z,100800.28
2023-02-17T01:31:10.304Z,100796.72
2023-02-17T01:33:38.457Z,100799.59
2023-02-17T01:36:06.604Z,100799.59
2023-02-17T01:38:34.978Z,100796.19
2023-02-17T01:41:02.955Z,100797.03
2023-02-17T01:43:31.128Z,100793.66
2023-02-17T01:45:59.216Z,100788.22
2023-02-17T01:48:27.595Z,100782.94
2023-02-17T01:50:55.769Z,100787.34
2023-02-17T01:53:23.984Z,100782.94
2023-02-17T01:55:52.109Z,100783.97
2023-02-17T01:58:20.239Z,100783.09
2023-02-17T02:00:48.269Z,100778.53
2023-02-17T02:03:16.715Z,100770.53
2023-02-17T02:05:44.627Z,100764.22
2023-02-17T02:08:12.670Z,100767.78
2023-02-17T02:10:40.665Z,100758.78
2023-02-17T02:13:08.769Z,100752.50
2023-02-17T02:15:37.005Z,100746.19
2023-02-17T02:18:05.058Z,100741.97
2023-02-17T02:20:33.086Z,100745.53
2023-02-17T02:23:01.305Z,100737.38
2023-02-17T02:25:29.681Z,100731.91
2023-02-17T02:27:57.551Z,100725.78
2023-02-17T02:30:25.734Z,100730.41
2023-02-17T02:32:53.928Z,100722.22
2023-02-17T02:35:22.040Z,100726.81
2023-02-17T02:37:50.017Z,100718.81
2023-02-17T02:40:18.066Z,100717.97
2023-02-17T02:42:46.117Z,100725.09
2023-02-17T02:45:14.102Z,100723.41
2023-02-17T02:47:42.098Z,100717.97
2023-02-17T02:50:10.400Z,100720.88
2023-02-17T02:52:38.496Z,100711.00
2023-02-17T02:55:06.518Z,100711.16
2023-02-17T02:57:34.662Z,100700.97
2023-02-17T03:00:02.759Z,100696.72
2023-02-17T03:02:30.856Z,100700.47
2023-02-17T03:04:58.823Z,100693.16
2023-02-17T03:07:26.987Z,100697.75
2023-02-17T03:09:55.052Z,100695.88
2023-02-17T03:12:23.012Z,100696.03
2023-02-17T03:14:51.056Z,100705.03
2023-02-17T03:17:18.938Z,100695.19
2023-02-17T03:19:47.779Z,100689.75
2023-02-17T03:22:15.853Z,100694.34
2023-02-17T03:24:43.814Z,100681.09
2023-02-17T03:27:12.008Z,100684.66
2023-02-17T03:29:39.922Z,100690.09
2023-02-17T03:32:13.991Z,100682.78
2023-02-17T03:34:41.869Z,100687.38
2023-02-17T03:37:09.900Z,100672.06
2023-02-17T03:39:38.347Z,100670.22
2023-02-17T03:42:06.280Z,100667.50
2023-02-17T03:44:34.351Z,100681.75
2023-02-17T03:47:02.242Z,100683.63
2023-02-17T03:49:30.212Z,100682.78
2023-02-17T03:51:59.594Z,100673.78
2023-02-17T03:54:27.589Z,100663.75
2023-02-17T03:56:55.709Z,100657.63
2023-02-17T03:59:23.799Z,100653.00
2023-02-17T04:01:51.896Z,100654.06
2023-02-17T04:04:19.776Z,100658.47
2023-02-17T04:06:47.807Z,100664.94
2023-02-17T04:09:18.125Z,100650.28
2023-02-17T04:11:46.109Z,100655.94
2023-02-17T04:14:14.106Z,100655.22
2023-02-17T04:16:42.051Z,100658.97
2023-02-17T04:19:09.945Z,100657.25
2023-02-17T04:21:37.987Z,100657.25
2023-02-17T04:24:14.278Z,100648.94
2023-02-17T04:26:42.238Z,100640.09
2023-02-17T04:29:10.261Z,100647.22
2023-02-17T04:31:38.435Z,100649.09
2023-02-17T04:34:06.526Z,100649.09
2023-02-17T04:36:34.514Z,100643.84
2023-02-17T04:39:02.538Z,100644.69
2023-02-17T04:41:30.517Z,100641.97
2023-02-17T04:43:58.518Z,100644.84
2023-02-17T04:46:26.750Z,100641.28
2023-02-17T04:48:55.196Z,100639.59
2023-02-17T04:51:23.273Z,100638.56
2023-02-17T04:53:51.274Z,100628.72
2023-02-17T04:56:19.290Z,100623.44
2023-02-17T04:58:47.305Z,100617.31
2023-02-17T05:01:15.387Z,100621.91
2023-02-17T05:03:43.534Z,100617.31
2023-02-17T05:06:11.536Z,100612.75
2023-02-17T05:08:39.668Z,100620.72
2023-02-17T05:11:07.767Z,100621.75
2023-02-17T05:13:35.731Z,100619.19
2023-02-17T05:16:03.978Z,100614.78
2023-02-17T05:18:32.228Z,100621.22
2023-02-17T05:21:00.132Z,100614.94
2023-02-17T05:23:28.444Z,100610.34
2023-02-17T05:25:56.474Z,100599.66
2023-02-17T05:28:24.453Z,100597.63
2023-02-17T05:30:52.479Z,100591.50
2023-02-17T05:33:20.413Z,100588.78
2023-02-17T05:35:48.312Z,100585.03
2023-02-17T05:38:16.214Z,100594.91
2023-02-17T05:40:44.094Z,100592.50
2023-02-17T05:43:12.152Z,100583.34
2023-02-17T05:45:40.049Z,100596.94
2023-02-17T05:48:07.961Z,100595.22
2023-02-17T05:50:35.938Z,100607.97
2023-02-17T05:53:03.757Z,100604.41
2023-02-17T05:55:31.722Z,100607.13
2023-02-17T05:57:59.937Z,100620.56
2023-02-17T06:00:28.358Z,100612.56
2023-02-17T06:02:56.383Z,100612.94
2023-02-17T06:05:24.372Z,100614.63
2023-02-17T06:07:52.557Z,100610.00
2023-02-17T06:10:20.521Z,100607.28
2023-02-17T06:12:48.578Z,100598.47
2023-02-17T06:15:16.544Z,100605.78
2023-02-17T06:17:44.408Z,100601.38
2023-02-17T06:20:12.397Z,100597.59
2023-02-17T06:22:40.512Z,100595.78
2023-02-17T06:25:08.399Z,100596.78
2023-02-17T06:27:36.363Z,100589.66
2023-02-17T06:30:04.350Z,100590.50
2023-02-17T06:32:32.431Z,100592.16
2023-02-17T06:35:00.180Z,100591.16
2023-02-17T06:37:28.110Z,100586.72
2023-02-17T06:39:55.965Z,100585.72
2023-02-17T06:42:24.112Z,100576.88
2023-02-17T06:44:52.130Z,100578.75
2023-02-17T06:47:20.139Z,100573.13
2023-02-17T06:49:48.162Z,100576.88
2023-02-17T06:52:16.124Z,100561.41
2023-02-17T06:54:44.082Z,100552.25
2023-02-17T06:57:12.219Z,100563.97
2023-02-17T06:59:40.602Z,100557.69
2023-02-17T07:02:08.910Z,100552.91
2023-02-17T07:04:36.834Z,100554.78
2023-02-17T07:07:04.922Z,100557.69
2023-02-17T07:09:32.824Z,100552.91
2023-02-17T07:12:00.839Z,100559.38
2023-02-17T07:14:28.913Z,100561.06
2023-02-17T07:16:56.983Z,100556.66
2023-02-17T07:19:25.084Z,100552.25
2023-02-17T07:21:52.992Z,100555.81
2023-02-17T07:24:20.984Z,100562.94
2023-02-17T07:26:49.319Z,100547.66
2023-02-17T07:29:17.311Z,100559.22
2023-02-17T07:31:45.757Z,100555.63
2023-02-17T07:34:17.496Z,100562.25
2023-02-17T07:36:45.396Z,100571.09
2023-02-17T07:39:13.504Z,100574.66
2023-02-17T07:41:41.547Z,100560.91
2023-02-17T07:44:10.138Z,100567.38
2023-02-17T07:46:39.841Z,100577.38
2023-02-17T07:49:07.819Z,100579.25
2023-02-17T07:51:35.842Z,100581.97
2023-02-17T07:54:03.924Z,100589.13
2023-02-17T07:56:33.930Z,100579.25
2023-02-17T07:59:01.951Z,100572.81
2023-02-17T08:01:29.868Z,100574.84
2023-02-17T08:04:12.573Z,100569.41
2023-02-17T08:06:41.157Z,100563.13
2023-02-17T08:09:26.496Z,100559.53
2023-02-17T08:12:11.951Z,100549.53
2023-02-17T08:14:39.825Z,100550.38
2023-02-17T08:17:07.745Z,100543.91
2023-02-17T08:19:47.468Z,100539.50
2023-02-17T08:22:18.670Z,100542.22
2023-02-17T08:24:46.661Z,100536.78
2023-02-17T08:27:14.605Z,100523.84
2023-02-17T08:29:42.702Z,100529.28
2023-02-17T08:32:10.670Z,100528.25
2023-02-17T08:34:38.540Z,100522.81
2023-02-17T08:37:06.565Z,100525.38
2023-02-17T08:39:34.529Z,100528.94
2023-02-17T08:42:02.966Z,100531.66
2023-02-17T08:44:30.948Z,100527.22
2023-02-17T08:46:58.858Z,100510.91
2023-02-17T08:49:27.096Z,100512.63
2023-02-17T08:51:56.380Z,100509.06
2023-02-17T08:54:24.167Z,100517.22
2023-02-17T08:56:52.053Z,100509.91
2023-02-17T08:59:19.821Z,100502.75
2023-02-17T09:01:47.694Z,100498.19
2023-02-17T09:04:15.560Z,100496.47
2023-02-17T09:06:43.368Z,100492.91
2023-02-17T09:09:11.268Z,100492.91
2023-02-17T09:11:39.574Z,100501.06
2023-02-17T09:14:07.433Z,100499.03
2023-02-17T09:16:35.332Z,100496.31
2023-02-17T09:19:03.188Z,100499.69
2023-02-17T09:21:31.019Z,100505.97
2023-02-17T09:23:58.818Z,100512.25
2023-02-17T09:26:26.678Z,100497.63
2023-02-17T09:28:54.526Z,100499.50
2023-02-17T09:31:22.678Z,100491.34
2023-02-17T09:33:50.663Z,100485.06
2023-02-17T09:36:18.543Z,100477.75
2023-02-17T09:38:46.402Z,100462.47
2023-02-17T09:41:14.594Z,100452.41
2023-02-17T09:43:42.435Z,100462.47
2023-02-17T09:46:11.077Z,100449.69
2023-02-17T09:48:38.902Z,100442.22
2023-02-17T09:51:06.700Z,100442.38
2023-02-17T09:53:34.562Z,100439.50
2023-02-17T09:56:02.377Z,100438.66
2023-02-17T09:58:30.239Z,100444.09
2023-02-17T10:00:58.443Z,100437.78
2023-02-17T10:03:26.475Z,100431.69
2023-02-17T10:05:54.405Z,100439.19
2023-02-17T10:08:22.280Z,100443.59
2023-02-17T10:10:50.135Z,100447.81
2023-02-17T10:13:18.051Z,100450.91
2023-02-17T10:15:45.892Z,100439.84
2023-02-17T10:18:13.777Z,100425.59
2023-02-17T10:20:41.703Z,100428.31
2023-02-17T10:23:09.718Z,100411.97
2023-02-17T10:25:37.482Z,100415.72
2023-02-17T10:28:05.452Z,100406.53
2023-02-17T10:30:33.372Z,100404.66
2023-02-17T10:33:01.323Z,100409.25
2023-02-17T10:35:29.744Z,100399.06
2023-02-17T10:37:57.569Z,100400.75
2023-02-17T10:40:25.457Z,100404.50
2023-02-17T10:42:53.258Z,100391.53
2023-02-17T10:45:21.236Z,100387.13
2023-02-17T10:47:49.070Z,100397.19
2023-02-17T10:50:17.076Z,100384.59
2023-02-17T10:52:45.020Z,100387.13
2023-02-17T10:55:22.702Z,100383.38
2023-02-17T10:57:51.348Z,100387.97
2023-02-17T11:00:19.093Z,100375.22
2023-02-17T11:02:46.933Z,100377.94
2023-02-17T11:05:14.765Z,100368.78
2023-02-17T11:07:42.607Z,100351.41
2023-02-17T11:10:13.048Z,100360.41
2023-02-17T11:12:41.020Z,100347.00
2023-02-17T11:15:08.827Z,100350.75
2023-02-17T11:17:36.574Z,100354.50
2023-02-17T11:20:04.880Z,100347.00
2023-02-17T11:22:33.081Z,100351.63
2023-02-17T11:25:00.879Z,100341.56
2023-02-17T11:27:28.701Z,100346.19
2023-02-17T11:29:56.564Z,100345.31
2023-02-17T11:32:24.427Z,100336.13
2023-02-17T11:34:52.222Z,100332.75
2023-02-17T11:37:20.079Z,100331.91
2023-02-17T11:39:47.852Z,100331.91
2023-02-17T11:42:15.744Z,100322.91
2023-02-17T11:44:43.572Z,100315.59
2023-02-17T11:47:11.416Z,100311.81
2023-02-17T11:49:39.252Z,100293.63
2023-02-17T11:52:07.065Z,100293.63
2023-02-17T11:54:34.907Z,100277.13
2023-02-17T11:57:02.744Z,100276.47
2023-02-17T11:59:30.557Z,100280.03
2023-02-17T12:01:58.384Z,100268.97
2023-02-17T12:04:26.166Z,100261.66
2023-02-17T12:06:54.041Z,100254.53
2023-02-17T12:09:21.922Z,100251.44
2023-02-17T12:11:49.786Z,100244.31
2023-02-17T12:14:17.596Z,100244.13
2023-02-17T12:16:45.406Z,100251.44
2023-02-17T12:19:13.186Z,100247.03
2023-02-17T12:21:41.035Z,100242.44
2023-02-17T12:24:08.843Z,100234.44
2023-02-17T12:26:36.597Z,100248.72
2023-02-17T12:29:04.419Z,100245.81
2023-02-17T12:31:32.300Z,100243.28
2023-02-17T12:34:00.260Z,100252.13
2023-02-17T12:36:28.094Z,100254.16
2023-02-17T12:38:55.928Z,100239.53
2023-02-17T12:41:23.784Z,100240.72
2023-02-17T12:43:51.556Z,100234.44
2023-02-17T12:46:19.416Z,100234.44
2023-02-17T12:48:47.235Z,100233.44
2023-02-17T12:51:15.118Z,100234.44
2023-02-17T12:53:42.890Z,100222.56
2023-02-17T12:56:10.781Z,100217.97
2023-02-17T12:58:38.703Z,100215.25
2023-02-17T13:01:07.553Z,100202.66
2023-02-17T13:03:35.516Z,100195.38
2023-02-17T13:06:03.265Z,100208.97
2023-02-17T13:08:31.705Z,100200.81
2023-02-17T13:10:59.603Z,100210.63
2023-02-17T13:13:27.433Z,100207.91
2023-02-17T13:15:55.445Z,100190.75
2023-02-17T13:18:23.248Z,100187.22
2023-02-17T13:20:51.024Z,100188.88
2023-02-17T13:23:18.870Z,100192.44
2023-02-17T13:25:46.663Z,100178.16
2023-02-17T13:28:14.479Z,100171.72
2023-02-17T13:30:42.277Z,100175.28
2023-02-17T13:33:10.128Z,100176.31
2023-02-17T13:35:37.934Z,100169.84
2023-02-17T13:38:05.740Z,100161.69
2023-02-17T13:40:33.488Z,100162.72
2023-02-17T13:43:01.403Z,100137.38
2023-02-17T13:45:29.199Z,100138.25
2023-02-17T13:47:57.005Z,100140.97
2023-02-17T13:50:24.794Z,100130.72
2023-02-17T13:52:52.638Z,100138.88
2023-02-17T13:55:20.441Z,100157.91
2023-02-17T13:57:49.016Z,100169.63
2023-02-17T14:00:17.104Z,100167.97
2023-02-17T14:02:44.932Z,100157.06
2023-02-17T14:05:12.771Z,100167.13
2023-02-17T14:07:40.690Z,100169.00
2023-02-17T14:10:08.500Z,100176.97
2023-02-17T14:12:36.511Z,100157.91
2023-02-17T14:15:04.373Z,100149.75
2023-02-17T14:17:32.893Z,100136.16
2023-02-17T14:20:01.990Z,100130.91
2023-02-17T14:22:29.841Z,100124.66
2023-02-17T14:24:57.778Z,100115.63
2023-02-17T14:27:25.590Z,100111.69
2023-02-17T14:29:53.363Z,100096.41
2023-02-17T14:32:21.221Z,100090.13
2023-02-17T14:34:49.067Z,100113.56
2023-02-17T14:37:16.907Z,100117.97
2023-02-17T14:39:44.761Z,100128.00
2023-02-17T14:42:12.940Z,100137.19
2023-02-17T14:44:40.721Z,100154.19
2023-02-17T14:47:08.471Z,100163.34
2023-02-17T14:49:36.286Z,100175.06
2023-02-17T14:52:04.117Z,100190.56
2023-02-17T14:54:32.363Z,100185.13
2023-02-17T14:57:00.152Z,100187.44
2023-02-17T14:59:28.071Z,100189.78
2023-02-17T15:01:56.005Z,100167.88
2023-02-17T15:04:23.828Z,100171.69
2023-02-17T15:06:51.825Z,100161.00
2023-02-17T15:09:21.349Z,100185.13
2023-02-17T15:11:49.168Z,100205.59
2023-02-17T15:14:16.994Z,100204.00
2023-02-17T15:16:44.882Z,100198.25
2023-02-17T15:19:12.636Z,100195.34
2023-02-17T15:21:40.392Z,100185.94
2023-02-17T15:24:08.143Z,100167.81
2023-02-17T15:26:35.940Z,100175.50
2023-02-17T15:29:03.705Z,100172.03
2023-02-17T15:31:31.677Z,100155.69
2023-02-17T15:33:59.534Z,100160.28
2023-02-17T15:36:27.700Z,100169.00
2023-02-17T15:38:55.511Z,100160.88
2023-02-17T15:41:23.296Z,100157.03
2023-02-17T15:43:51.084Z,100157.00
2023-02-17T15:46:19.036Z,100174.53
2023-02-17T15:48:48.559Z,100177.03
2023-02-17T15:51:18.589Z,100165.72
2023-02-17T15:53:46.478Z,100173.06
2023-02-17T15:56:14.529Z,100170.91
2023-02-17T15:58:42.589Z,100161.75
2023-02-17T16:01:10.406Z,100155.91
2023-02-17T16:03:38.266Z,100156.53
2023-02-17T16:06:07.076Z,100147.22
2023-02-17T16:08:35.305Z,100170.38
2023-02-17T16:11:03.185Z,100156.44
2023-02-17T16:13:30.975Z,100145.63
2023-02-17T16:15:58.838Z,100153.84
2023-02-17T16:18:26.623Z,100139.47
2023-02-17T16:20:54.403Z,100124.38
2023-02-17T16:23:22.220Z,100134.41
2023-02-17T16:25:50.254Z,100142.75
2023-02-17T16:28:18.051Z,100147.03
2023-02-17T16:30:46.414Z,100154.81
2023-02-17T16:33:14.231Z,100155.16
2023-02-17T16:35:42.642Z,100169.56
2023-02-17T16:38:10.412Z,100159.00
2023-02-17T16:40:38.254Z,100170.81
2023-02-17T16:43:06.005Z,100178.41
2023-02-17T16:45:33.930Z,100179.47
2023-02-17T16:48:01.805Z,100195.81
2023-02-17T16:50:29.831Z,100196.16
2023-02-17T16:52:57.667Z,100210.28
2023-02-17T16:55:25.494Z,100217.28
2023-02-17T16:57:53.345Z,100240.50
2023-02-17T17:00:21.615Z,100262.66
2023-02-17T17:02:49.491Z,100252.84
2023-02-17T17:05:17.304Z,100273.22
2023-02-17T17:07:45.174Z,100276.84
2023-02-17T17:10:16.700Z,100283.91
2023-02-17T17:12:44.884Z,100279.16
2023-02-17T17:15:12.665Z,100291.88
2023-02-17T17:17:40.635Z,100277.47
2023-02-17T17:20:08.784Z,100284.84
2023-02-17T17:22:36.569Z,100278.41
2023-02-17T17:25:04.391Z,100287.25
2023-02-17T17:27:32.202Z,100289.03
2023-02-17T17:30:00.151Z,100289.41
2023-02-17T17:32:28.449Z,100288.72
2023-02-17T17:34:56.228Z,100279.56
2023-02-17T17:37:24.403Z,100269.97
2023-02-17T17:39:52.210Z,100267.16
2023-02-17T17:42:20.031Z,100261.16
2023-02-17T17:44:47.939Z,100276.06
2023-02-17T17:47:21.349Z,100278.69
2023-02-17T17:49:56.196Z,100275.88
2023-02-17T17:52:24.347Z,100275.09
2023-02-17T17:54:52.213Z,100281.69
2023-02-17T17:57:20.038Z,100269.59
2023-02-17T17:59:47.901Z,100277.34
2023-02-17T18:02:15.742Z,100284.09
2023-02-17T18:04:43.577Z,100299.31
2023-02-17T18:07:11.422Z,100295.19
2023-02-17T18:09:39.223Z,100299.91
2023-02-17T18:12:07.457Z,100305.22
2023-02-17T18:14:35.356Z,100315.31
2023-02-17T18:17:03.185Z,100314.41
2023-02-17T18:19:31.061Z,100314.16
2023-02-17T18:21:59.117Z,100321.63
2023-02-17T18:24:26.891Z,100328.22
2023-02-17T18:26:54.696Z,100331.44
2023-02-17T18:29:22.633Z,100337.47
2023-02-17T18:31:50.564Z,100330.97
2023-02-17T18:34:18.567Z,100323.88
2023-02-17T18:36:46.402Z,100320.50
2023-02-17T18:39:14.180Z,100322.56
2023-02-17T18:41:41.941Z,100320.16
2023-02-17T18:44:11.218Z,100322.78
2023-02-17T18:46:39.186Z,100327.09
2023-02-17T18:49:07.171Z,100328.78
2023-02-17T18:51:35.030Z,100339.56
2023-02-17T18:54:02.849Z,100339.13
2023-02-17T18:56:30.635Z,100349.63
2023-02-17T18:58:58.562Z,100360.94
2023-02-17T19:01:26.384Z,100363.00
2023-02-17T19:03:54.200Z,100370.84
2023-02-17T19:06:22.025Z,100366.03
2023-02-17T19:08:49.806Z,100389.63
2023-02-17T19:11:18.023Z,100392.19
2023-02-17T19:13:45.871Z,100399.13
2023-02-17T19:16:13.770Z,100400.22
2023-02-17T19:18:41.626Z,100394.31
2023-02-17T19:21:09.555Z,100396.72
2023-02-17T19:23:37.453Z,100373.72
2023-02-17T19:26:05.872Z,100394.63
2023-02-17T19:28:33.797Z,100385.09
2023-02-17T19:31:01.761Z,100385.78
2023-02-17T19:33:29.632Z,100373.13
2023-02-17T19:35:57.382Z,100381.81
2023-02-17T19:38:25.648Z,100385.34
2023-02-17T19:40:54.258Z,100391.34
2023-02-17T19:43:22.250Z,100385.59
2023-02-17T19:45:50.073Z,100390.97
2023-02-17T19:48:17.992Z,100396.25
2023-02-17T19:50:45.781Z,100387.34
2023-02-17T19:53:13.573Z,100405.91
2023-02-17T19:55:41.626Z,100412.31
2023-02-17T19:58:09.416Z,100417.72
2023-02-17T20:00:37.215Z,100416.81
2023-02-17T20:03:05.201Z,100429.50
2023-02-17T20:05:33.235Z,100417.16
2023-02-17T20:08:01.109Z,100413.75
2023-02-17T20:10:28.973Z,100417.69
2023-02-17T20:12:56.846Z,100421.34
2023-02-17T20:15:25.018Z,100428.34
2023-02-17T20:17:53.168Z,100453.81
2023-02-17T20:20:21.413Z,100429.88
2023-02-17T20:22:49.453Z,100441.34
2023-02-17T20:25:17.391Z,100444.72
2023-02-17T20:27:45.169Z,100438.66
2023-02-17T20:30:12.952Z,100440.56
2023-02-17T20:32:40.868Z,100448.53
2023-02-17T20:35:08.624Z,100452.72
2023-02-17T20:37:36.408Z,100454.78
2023-02-17T20:40:04.561Z,100454.75
2023-02-17T20:42:32.364Z,100443.13
2023-02-17T20:45:00.582Z,100447.91
2023-02-17T20:47:28.429Z,100451.84
2023-02-17T20:49:56.296Z,100450.75
2023-02-17T20:52:24.154Z,100465.84
2023-02-17T20:54:52.010Z,100459.88
2023-02-17T20:57:19.794Z,100466.53
2023-02-17T20:59:48.215Z,100478.91
2023-02-17T21:02:16.096Z,100482.22
2023-02-17T21:04:43.897Z,100505.75
2023-02-17T21:07:11.666Z,100517.19
2023-02-17T21:09:39.497Z,100530.16
2023-02-17T21:12:07.264Z,100542.56
2023-02-17T21:14:35.043Z,100536.44
2023-02-17T21:17:02.769Z,100562.25
2023-02-17T21:19:30.853Z,100551.66
2023-02-17T21:21:58.655Z,100554.28
2023-02-17T21:24:26.553Z,100547.94
2023-02-17T21:26:54.391Z,100559.84
2023-02-17T21:29:22.173Z,100555.28
2023-02-17T21:31:50.207Z,100552.47
2023-02-17T21:34:18.225Z,100571.97
2023-02-17T21:36:46.000Z,100560.78
2023-02-17T21:39:13.862Z,100572.28
2023-02-17T21:41:41.726Z,100570.13
2023-02-17T21:44:27.020Z,100578.69
2023-02-17T21:46:54.813Z,100575.88
2023-02-17T21:49:23.507Z,100584.47
2023-02-17T21:51:51.265Z,100577.50
2023-02-17T21:54:19.101Z,100591.53
2023-02-17T21:56:46.952Z,100592.94
2023-02-17T21:59:14.765Z,100592.47
2023-02-17T22:01:42.662Z,100600.00
2023-02-17T22:04:10.684Z,100600.16
2023-02-17T22:06:38.625Z,100608.72
2023-02-17T22:09:06.573Z,100609.56
2023-02-17T22:11:34.428Z,100612.50
2023-02-17T22:14:02.266Z,100605.53
2023-02-17T22:16:30.380Z,100605.72
2023-02-17T22:18:58.281Z,100610.72
2023-02-17T22:21:26.385Z,100614.47
2023-02-17T22:23:54.188Z,100611.94
2023-02-17T22:26:22.016Z,100614.84
2023-02-17T22:28:49.908Z,100619.63
2023-02-17T22:31:17.792Z,100624.44
2023-02-17T22:33:45.823Z,100626.50
2023-02-17T22:36:13.864Z,100620.38
2023-02-17T22:38:41.684Z,100634.16
2023-02-17T22:41:09.543Z,100632.47
2023-02-17T22:43:37.380Z,100629.91
2023-02-17T22:46:06.282Z,100638.47
2023-02-17T22:48:34.334Z,100635.09
2023-02-17T22:51:02.295Z,100637.19
2023-02-17T22:53:30.091Z,100636.50
2023-02-17T22:55:57.908Z,100639.59
2023-02-17T22:58:25.791Z,100641.66
2023-02-17T23:00:53.588Z,100639.97
2023-02-17T23:03:21.500Z,100645.44
2023-02-17T23:05:49.343Z,100652.94
2023-02-17T23:08:17.169Z,100658.78
2023-02-17T23:10:45.036Z,100660.63
2023-02-17T23:13:12.958Z,100652.44
2023-02-17T23:15:40.801Z,100661.66
2023-02-17T23:18:08.583Z,100667.97
2023-02-17T23:20:36.481Z,100667.97
2023-02-17T23:23:04.331Z,100670.69
2023-02-17T23:25:32.247Z,100670.91
2023-02-17T23:28:00.295Z,100679.25
2023-02-17T23:30:28.164Z,100673.97
2023-02-17T23:32:56.145Z,100677.91
2023-02-17T23:35:24.017Z,100680.81
2023-02-17T23:37:51.981Z,100689.00
2023-02-17T23:40:19.776Z,100681.00
2023-02-17T23:42:47.643Z,100683.03
2023-02-17T23:45:15.458Z,100674.88
2023-02-17T23:47:43.281Z,100679.47
2023-02-17T23:50:11.170Z,100681.38
2023-02-17T23:52:39.035Z,100677.78
2023-02-17T23:55:07.067Z,100680.53
2023-02-17T23:57:39.154Z,100674.88
